createdAt,value
2023-02-03T00:03:33.556Z,4.78
2023-02-03T00:08:36.772Z,7.45
2023-02-03T00:13:40.539Z,9.00
2023-02-03T00:18:42.725Z,6.22
2023-02-03T00:23:45.158Z,5.95
2023-02-03T00:28:48.770Z,5.43
2023-02-03T00:33:55.078Z,7.60
2023-02-03T00:38:58.182Z,5.55
2023-02-03T00:44:01.793Z,5.72
2023-02-03T00:49:04.552Z,4.30
2023-02-03T00:54:06.988Z,9.35
2023-02-03T00:59:10.612Z,8.00
2023-02-03T01:04:12.929Z,4.95
2023-02-03T01:09:15.097Z,10.13
2023-02-03T01:14:18.680Z,4.55
2023-02-03T01:19:20.989Z,7.53
2023-02-03T01:24:23.162Z,8.95
2023-02-03T01:29:26.932Z,4.80
2023-02-03T01:34:29.243Z,7.35
2023-02-03T01:39:31.527Z,3.85
2023-02-03T01:44:43.425Z,6.22
2023-02-03T01:49:52.952Z,4.05
2023-02-03T01:54:58.922Z,5.07
2023-02-03T02:00:05.015Z,6.20
2023-02-03T02:05:14.185Z,7.30
2023-02-03T02:10:17.164Z,7.88
2023-02-03T02:15:25.191Z,6.10
2023-02-03T02:20:48.850Z,7.03
2023-02-03T02:26:17.887Z,7.03
2023-02-03T02:31:58.440Z,8.73
2023-02-03T02:37:07.793Z,8.43
2023-02-03T02:42:18.403Z,7.05
2023-02-03T02:47:23.923Z,7.10
2023-02-03T02:52:28.095Z,4.82
2023-02-03T02:57:31.732Z,6.50
2023-02-03T03:02:37.039Z,11.00
2023-02-03T03:07:45.385Z,8.18
2023-02-03T03:12:52.929Z,4.88
2023-02-03T03:18:01.212Z,9.18
2023-02-03T03:23:07.437Z,5.00
2023-02-03T03:28:15.239Z,6.90
2023-02-03T03:33:19.788Z,9.25
2023-02-03T03:38:26.507Z,5.00
2023-02-03T03:43:32.133Z,11.60
2023-02-03T03:48:41.824Z,8.95
2023-02-03T03:53:47.190Z,8.93
2023-02-03T03:58:52.756Z,7.60
2023-02-03T04:03:59.580Z,8.25
2023-02-03T04:09:01.839Z,8.07
2023-02-03T04:14:04.680Z,6.32
2023-02-03T04:19:08.649Z,8.00
2023-02-03T04:24:11.006Z,7.72
2023-02-03T04:29:13.232Z,16.13
2023-02-03T04:34:16.839Z,6.55
2023-02-03T04:39:19.124Z,8.95
2023-02-03T04:44:21.310Z,8.43
2023-02-03T04:49:25.131Z,9.70
2023-02-03T04:54:27.526Z,9.82
2023-02-03T04:59:29.720Z,9.93
2023-02-03T05:04:33.381Z,12.23
2023-02-03T05:09:35.539Z,10.35
2023-02-03T05:14:37.807Z,11.75
2023-02-03T05:19:41.469Z,8.55
2023-02-03T05:24:43.670Z,11.57
2023-02-03T05:29:46.097Z,8.00
2023-02-03T05:34:49.940Z,9.15
2023-02-03T05:39:52.183Z,11.65
2023-02-03T05:44:54.296Z,9.40
2023-02-03T05:49:57.866Z,4.32
2023-02-03T05:55:00.085Z,10.63
2023-02-03T06:00:02.558Z,6.85
2023-02-03T06:05:07.287Z,10.75
2023-02-03T06:10:10.348Z,8.93
2023-02-03T06:15:12.567Z,8.57
2023-02-03T06:20:18.068Z,13.73
2023-02-03T06:25:20.327Z,11.55
2023-02-03T06:30:22.577Z,9.65
2023-02-03T06:35:26.981Z,12.05
2023-02-03T06:40:30.017Z,10.18
2023-02-03T06:45:32.560Z,10.82
2023-02-03T06:50:36.141Z,15.20
2023-02-03T06:55:38.327Z,12.30
2023-02-03T07:00:40.552Z,14.27
2023-02-03T07:05:44.277Z,11.50
2023-02-03T07:10:46.556Z,12.43
2023-02-03T07:15:48.763Z,16.58
2023-02-03T07:20:52.642Z,13.98
2023-02-03T07:25:58.947Z,18.95
2023-02-03T07:31:04.335Z,17.02
2023-02-03T07:36:10.365Z,18.80
2023-02-03T07:41:12.667Z,13.77
2023-02-03T07:46:14.950Z,23.42
2023-02-03T07:51:18.689Z,17.70
2023-02-03T07:56:20.880Z,22.52
2023-02-03T08:01:23.224Z,15.85
2023-02-03T08:06:26.864Z,24.25
2023-02-03T08:11:29.357Z,20.40
2023-02-03T08:16:31.906Z,25.67
2023-02-03T08:21:35.642Z,23.98
2023-02-03T08:26:37.769Z,25.90
2023-02-03T08:31:42.311Z,26.83
2023-02-03T08:36:46.016Z,19.25
2023-02-03T08:41:48.301Z,14.95
2023-02-03T08:46:50.821Z,10.32
2023-02-03T08:51:55.537Z,15.88
2023-02-03T08:56:58.110Z,22.63
2023-02-03T09:02:00.449Z,21.75
2023-02-03T09:07:04.493Z,23.83
2023-02-03T09:12:07.154Z,27.45
2023-02-03T09:17:10.244Z,25.50
2023-02-03T09:22:13.905Z,28.98
2023-02-03T09:27:19.445Z,23.58
2023-02-03T09:32:21.596Z,30.33
2023-02-03T09:37:25.418Z,25.20
2023-02-03T09:42:56.008Z,24.95
2023-02-03T09:48:04.054Z,21.33
2023-02-03T09:53:20.041Z,19.38
2023-02-03T09:58:22.375Z,26.73
2023-02-03T10:03:33.790Z,22.08
2023-02-03T10:09:01.988Z,29.92
2023-02-03T10:14:18.577Z,22.38
2023-02-03T10:19:23.197Z,29.98
2023-02-03T10:24:36.155Z,30.75
2023-02-03T10:29:41.763Z,22.98
2023-02-03T10:34:47.279Z,28.15
2023-02-03T10:39:52.881Z,25.27
2023-02-03T10:44:58.537Z,30.05
2023-02-03T10:50:04.406Z,28.70
2023-02-03T10:55:28.895Z,23.33
2023-02-03T11:00:35.322Z,20.05
2023-02-03T11:05:37.508Z,21.83
2023-02-03T11:10:41.359Z,20.35
2023-02-03T11:15:53.761Z,20.73
2023-02-03T11:20:56.950Z,23.92
2023-02-03T11:26:09.231Z,27.42
2023-02-03T11:31:22.051Z,27.80
2023-02-03T11:36:27.424Z,21.52
2023-02-03T11:41:38.262Z,26.17
2023-02-03T11:46:41.519Z,24.88
2023-02-03T11:51:52.189Z,23.92
2023-02-03T11:57:17.078Z,18.67
2023-02-03T12:03:01.173Z,20.80
2023-02-03T12:08:13.401Z,29.08
2023-02-03T12:13:32.170Z,23.60
2023-02-03T12:18:47.926Z,28.88
2023-02-03T12:23:59.973Z,29.10
2023-02-03T12:29:09.684Z,21.15
2023-02-03T12:34:20.098Z,30.73
2023-02-03T12:39:28.935Z,23.80
2023-02-03T12:44:48.102Z,24.50
2023-02-03T12:49:55.403Z,31.50
2023-02-03T13:00:20.462Z,19.02
2023-02-03T13:05:28.879Z,15.95
2023-02-03T13:10:40.237Z,20.67
2023-02-03T13:15:47.142Z,19.48
2023-02-03T13:20:50.134Z,17.17
2023-02-03T13:26:20.470Z,16.50
2023-02-03T13:31:36.660Z,22.98
2023-02-03T13:37:17.895Z,20.27
2023-02-03T13:42:25.213Z,21.27
2023-02-03T13:47:33.014Z,25.67
2023-02-03T13:52:38.754Z,21.70
2023-02-03T13:57:41.410Z,21.23
2023-02-03T14:02:53.179Z,18.45
2023-02-03T14:07:55.442Z,24.00
2023-02-03T14:13:00.818Z,20.38
2023-02-03T14:18:35.002Z,21.85
2023-02-03T14:23:59.589Z,25.98
2023-02-03T14:29:02.944Z,21.52
2023-02-03T14:34:11.796Z,22.83
2023-02-03T14:39:43.841Z,29.70
2023-02-03T14:45:01.590Z,38.05
2023-02-03T14:50:21.716Z,32.85
2023-02-03T14:55:42.990Z,34.30
2023-02-03T15:00:45.183Z,34.92
2023-02-03T15:05:50.623Z,32.30
2023-02-03T15:10:52.870Z,34.45
2023-02-03T15:15:57.526Z,29.38
2023-02-03T15:21:01.256Z,26.05
2023-02-03T15:26:12.868Z,24.55
2023-02-03T15:31:20.413Z,34.67
2023-02-03T15:36:30.423Z,28.85
2023-02-03T15:41:35.561Z,31.67
2023-02-03T15:46:43.554Z,26.42
2023-02-03T15:51:50.563Z,33.25
2023-02-03T15:56:58.847Z,30.60
2023-02-03T16:02:06.524Z,29.08
2023-02-03T16:07:21.051Z,30.42
2023-02-03T16:12:25.204Z,28.20
2023-02-03T16:17:30.893Z,24.13
2023-02-03T16:22:41.709Z,23.52
2023-02-03T16:27:47.503Z,22.98
2023-02-03T16:33:12.373Z,25.40
2023-02-03T16:38:19.833Z,36.30
2023-02-03T16:48:27.190Z,26.58
2023-02-03T16:53:35.048Z,31.48
2023-02-03T16:58:38.397Z,33.28
2023-02-03T17:03:43.877Z,24.08
2023-02-03T17:08:47.965Z,28.58
2023-02-03T17:13:50.917Z,27.58
2023-02-03T17:18:53.584Z,19.25
2023-02-03T17:23:58.964Z,22.00
2023-02-03T17:29:01.130Z,22.33
2023-02-03T17:34:03.351Z,30.77
2023-02-03T17:55:08.635Z,26.77
2023-02-03T18:00:11.904Z,19.48
2023-02-03T18:05:14.048Z,26.77
2023-02-03T18:10:18.975Z,24.65
2023-02-03T18:15:21.191Z,23.08
2023-02-03T18:20:23.340Z,26.08
2023-02-03T18:25:27.189Z,24.23
2023-02-03T18:30:29.677Z,29.35
2023-02-03T18:35:33.641Z,26.38
2023-02-03T18:40:38.965Z,36.03
2023-02-03T18:45:41.147Z,31.05
2023-02-03T18:50:43.842Z,24.15
2023-02-03T18:55:47.536Z,33.15
2023-02-03T19:00:49.696Z,38.83
2023-02-03T19:05:51.794Z,29.23
2023-02-03T19:10:55.512Z,21.30
2023-02-03T19:15:57.700Z,27.45
2023-02-03T19:20:59.837Z,30.85
2023-02-03T19:26:03.532Z,23.98
2023-02-03T19:31:08.649Z,37.58
2023-02-03T19:36:11.615Z,27.35
2023-02-03T19:41:15.437Z,27.83
2023-02-03T19:46:20.442Z,24.45
2023-02-03T19:51:22.676Z,23.88
2023-02-03T19:56:26.301Z,30.45
2023-02-03T20:01:28.457Z,32.33
2023-02-03T20:06:31.073Z,32.40
2023-02-03T20:11:34.616Z,24.67
2023-02-03T20:16:36.846Z,35.15
2023-02-03T20:21:39.012Z,25.17
2023-02-03T20:26:42.685Z,32.53
2023-02-03T20:31:44.949Z,36.92
2023-02-03T20:36:47.217Z,26.33
2023-02-03T20:41:50.939Z,24.70
2023-02-03T20:46:53.370Z,27.75
2023-02-03T20:51:55.664Z,34.97
2023-02-03T20:56:59.271Z,28.90
2023-02-03T21:02:01.417Z,30.38
2023-02-03T21:07:12.734Z,30.52
2023-02-03T21:12:16.527Z,29.40
2023-02-03T21:17:23.462Z,30.92
2023-02-03T21:22:28.049Z,24.65
2023-02-03T21:27:33.044Z,29.98
2023-02-03T21:32:38.308Z,22.83
2023-02-03T21:37:41.657Z,27.25
2023-02-03T21:42:46.425Z,28.52
2023-02-03T21:47:52.894Z,21.95
2023-02-03T21:52:55.337Z,22.17
2023-02-03T21:57:59.116Z,33.45
2023-02-03T22:03:01.950Z,39.33
2023-02-03T22:08:13.645Z,29.83
2023-02-03T22:13:17.353Z,20.23
2023-02-03T22:18:19.555Z,23.13
2023-02-03T22:23:21.850Z,13.10
2023-02-03T22:28:25.550Z,32.08
2023-02-03T22:33:27.750Z,21.98
2023-02-03T22:38:30.637Z,26.90
2023-02-03T22:43:34.281Z,22.08
2023-02-03T22:48:36.525Z,23.80
2023-02-03T22:53:38.737Z,28.25
2023-02-03T22:58:42.432Z,28.17
2023-02-03T23:03:44.744Z,24.20
2023-02-03T23:08:46.989Z,21.88
2023-02-03T23:13:50.654Z,25.40
2023-02-03T23:18:52.824Z,23.92
2023-02-03T23:23:54.961Z,13.77
2023-02-03T23:28:58.605Z,16.60
2023-02-03T23:34:00.868Z,18.08
2023-02-03T23:39:03.142Z,22.65
2023-02-03T23:44:07.009Z,17.20
2023-02-03T23:49:09.841Z,15.18
2023-02-03T23:54:12.120Z,11.95
2023-02-03T23:59:15.726Z,12.68
